Chiclayo, Peru
Current Conditions -  °F | °C
As of 4:00 AM on Thursday 23 Oct 2014 (Local Time) from SPHI Reporting Station
Overcast Overcast  
Wind Chill: 64°   Ceiling: 700
Heat Index: 64°   Visibility: 6mi
Dew Point: 61°   Wind: 9mph
Humidity: 88%   Direction: 170°S
Pressure: 29.88"   Gusts: NA
Location:  6.76°S, 79.84°W
Report Text: SPHI 230900Z 17008KT 9999 OVC007 18/16 Q1012 RMK PP000
Loading
Personal Weather Stations






























Interactive Weather Map
Tropical Storm Tracking
New forecast layout! Learn more

10-Day Weather Forecast

Advertisements
Track Severe Weather on mobile